sensor_id;sensor_type;location;lat;lon;timestamp;pressure;altitude;pressure_sealevel;temperature;humidity
17593;BME280;8915;51.760;14.300;2023-07-31T00:01:19;100631.06;;;15.81;77.73
17593;BME280;8915;51.760;14.300;2023-07-31T00:03:46;100621.13;;;15.78;78.21
17593;BME280;8915;51.760;14.300;2023-07-31T00:06:15;100622.97;;;15.74;78.15
17593;BME280;8915;51.760;14.300;2023-07-31T00:08:43;100617.22;;;15.72;78.19
17593;BME280;8915;51.760;14.300;2023-07-31T00:11:10;100624.03;;;15.69;78.32
17593;BME280;8915;51.760;14.300;2023-07-31T00:13:43;100615.66;;;15.67;78.39
17593;BME280;8915;51.760;14.300;2023-07-31T00:16:10;100623.22;;;15.65;78.90
17593;BME280;8915;51.760;14.300;2023-07-31T00:18:38;100622.81;;;15.63;78.60
17593;BME280;8915;51.760;14.300;2023-07-31T00:21:05;100617.84;;;15.62;78.72
17593;BME280;8915;51.760;14.300;2023-07-31T00:23:32;100610.97;;;15.61;78.67
17593;BME280;8915;51.760;14.300;2023-07-31T00:26:00;100613.25;;;15.59;78.74
17593;BME280;8915;51.760;14.300;2023-07-31T00:28:28;100611.28;;;15.56;79.07
17593;BME280;8915;51.760;14.300;2023-07-31T00:30:57;100605.19;;;15.55;79.01
17593;BME280;8915;51.760;14.300;2023-07-31T00:33:25;100607.03;;;15.51;79.24
17593;BME280;8915;51.760;14.300;2023-07-31T00:35:53;100602.84;;;15.50;79.13
17593;BME280;8915;51.760;14.300;2023-07-31T00:38:20;100611.97;;;15.49;78.72
17593;BME280;8915;51.760;14.300;2023-07-31T00:40:49;100615.72;;;15.48;79.19
17593;BME280;8915;51.760;14.300;2023-07-31T00:43:17;100604.69;;;15.46;79.18
17593;BME280;8915;51.760;14.300;2023-07-31T00:45:44;100600.47;;;15.45;79.43
17593;BME280;8915;51.760;14.300;2023-07-31T00:48:18;100598.16;;;15.44;79.38
17593;BME280;8915;51.760;14.300;2023-07-31T00:50:45;100598.53;;;15.42;79.08
17593;BME280;8915;51.760;14.300;2023-07-31T00:53:16;100595.47;;;15.40;79.50
17593;BME280;8915;51.760;14.300;2023-07-31T00:55:43;100592.81;;;15.40;79.80
17593;BME280;8915;51.760;14.300;2023-07-31T00:58:15;100590.50;;;15.39;79.14
17593;BME280;8915;51.760;14.300;2023-07-31T01:00:50;100600.72;;;15.37;79.32
17593;BME280;8915;51.760;14.300;2023-07-31T01:03:19;100587.44;;;15.37;79.52
17593;BME280;8915;51.760;14.300;2023-07-31T01:05:54;100585.91;;;15.36;79.22
17593;BME280;8915;51.760;14.300;2023-07-31T01:08:29;100580.94;;;15.34;79.63
17593;BME280;8915;51.760;14.300;2023-07-31T01:11:15;100580.47;;;15.32;79.75
17593;BME280;8915;51.760;14.300;2023-07-31T01:13:44;100570.94;;;15.31;79.57
17593;BME280;8915;51.760;14.300;2023-07-31T01:16:18;100580.06;;;15.30;79.94
17593;BME280;8915;51.760;14.300;2023-07-31T01:18:50;100580.84;;;15.31;80.12
17593;BME280;8915;51.760;14.300;2023-07-31T01:21:28;100591.84;;;15.29;80.16
17593;BME280;8915;51.760;14.300;2023-07-31T01:24:20;100574.34;;;15.28;80.11
17593;BME280;8915;51.760;14.300;2023-07-31T01:26:55;100588.03;;;15.30;80.00
17593;BME280;8915;51.760;14.300;2023-07-31T01:29:38;100574.06;;;15.33;80.04
17593;BME280;8915;51.760;14.300;2023-07-31T01:32:10;100575.59;;;15.34;80.26
17593;BME280;8915;51.760;14.300;2023-07-31T01:34:41;100581.31;;;15.36;80.39
17593;BME280;8915;51.760;14.300;2023-07-31T01:37:09;100585.94;;;15.39;80.49
17593;BME280;8915;51.760;14.300;2023-07-31T01:39:35;100582.56;;;15.42;80.48
17593;BME280;8915;51.760;14.300;2023-07-31T01:42:04;100581.84;;;15.45;80.10
17593;BME280;8915;51.760;14.300;2023-07-31T01:44:31;100570.13;;;15.50;80.30
17593;BME280;8915;51.760;14.300;2023-07-31T01:46:58;100574.75;;;15.53;80.56
17593;BME280;8915;51.760;14.300;2023-07-31T01:49:26;100575.56;;;15.57;80.30
17593;BME280;8915;51.760;14.300;2023-07-31T01:51:53;100564.19;;;15.60;80.50
17593;BME280;8915;51.760;14.300;2023-07-31T01:54:24;100549.03;;;15.64;80.04
17593;BME280;8915;51.760;14.300;2023-07-31T01:56:52;100542.25;;;15.66;80.39
17593;BME280;8915;51.760;14.300;2023-07-31T01:59:20;100537.72;;;15.70;79.98
17593;BME280;8915;51.760;14.300;2023-07-31T02:01:50;100543.47;;;15.72;79.90
17593;BME280;8915;51.760;14.300;2023-07-31T02:04:19;100541.97;;;15.75;79.95
17593;BME280;8915;51.760;14.300;2023-07-31T02:06:48;100532.84;;;15.76;79.25
17593;BME280;8915;51.760;14.300;2023-07-31T02:09:16;100534.81;;;15.79;79.92
17593;BME280;8915;51.760;14.300;2023-07-31T02:11:46;100539.78;;;15.80;79.48
17593;BME280;8915;51.760;14.300;2023-07-31T02:14:18;100534.84;;;15.82;79.26
17593;BME280;8915;51.760;14.300;2023-07-31T02:16:49;100532.19;;;15.82;79.05
17593;BME280;8915;51.760;14.300;2023-07-31T02:19:17;100533.72;;;15.83;78.81
17593;BME280;8915;51.760;14.300;2023-07-31T02:21:45;100534.13;;;15.85;79.05
17593;BME280;8915;51.760;14.300;2023-07-31T02:24:12;100540.22;;;15.86;78.93
17593;BME280;8915;51.760;14.300;2023-07-31T02:26:41;100545.19;;;15.87;78.61
17593;BME280;8915;51.760;14.300;2023-07-31T02:29:08;100535.31;;;15.88;78.20
17593;BME280;8915;51.760;14.300;2023-07-31T02:31:40;100536.47;;;15.90;78.11
17593;BME280;8915;51.760;14.300;2023-07-31T02:34:08;100541.84;;;15.94;78.26
17593;BME280;8915;51.760;14.300;2023-07-31T02:36:35;100528.94;;;15.96;78.01
17593;BME280;8915;51.760;14.300;2023-07-31T02:39:02;100529.31;;;15.98;77.95
17593;BME280;8915;51.760;14.300;2023-07-31T02:41:33;100513.72;;;15.96;77.45
17593;BME280;8915;51.760;14.300;2023-07-31T02:44:01;100509.94;;;15.97;77.64
17593;BME280;8915;51.760;14.300;2023-07-31T02:46:31;100512.22;;;15.99;77.18
17593;BME280;8915;51.760;14.300;2023-07-31T02:48:58;100506.13;;;15.98;76.97
17593;BME280;8915;51.760;14.300;2023-07-31T02:51:26;100510.28;;;15.96;76.70
17593;BME280;8915;51.760;14.300;2023-07-31T02:53:56;100504.56;;;15.94;76.48
17593;BME280;8915;51.760;14.300;2023-07-31T02:56:25;100510.25;;;15.92;76.31
17593;BME280;8915;51.760;14.300;2023-07-31T02:58:52;100506.81;;;15.92;75.98
17593;BME280;8915;51.760;14.300;2023-07-31T03:01:20;100501.09;;;15.90;75.95
17593;BME280;8915;51.760;14.300;2023-07-31T03:03:47;100512.88;;;15.89;76.21
17593;BME280;8915;51.760;14.300;2023-07-31T03:06:14;100507.94;;;15.91;75.90
17593;BME280;8915;51.760;14.300;2023-07-31T03:08:44;100503.34;;;15.88;75.44
17593;BME280;8915;51.760;14.300;2023-07-31T03:11:19;100509.44;;;15.88;75.22
17593;BME280;8915;51.760;14.300;2023-07-31T03:13:49;100510.56;;;15.87;75.33
17593;BME280;8915;51.760;14.300;2023-07-31T03:16:28;100510.16;;;15.85;75.27
17593;BME280;8915;51.760;14.300;2023-07-31T03:19:00;100508.25;;;15.86;75.10
17593;BME280;8915;51.760;14.300;2023-07-31T03:21:29;100506.34;;;15.83;74.92
17593;BME280;8915;51.760;14.300;2023-07-31T03:24:10;100516.56;;;15.81;75.30
17593;BME280;8915;51.760;14.300;2023-07-31T03:26:48;100513.16;;;15.80;74.97
17593;BME280;8915;51.760;14.300;2023-07-31T03:29:31;100513.53;;;15.82;75.20
17593;BME280;8915;51.760;14.300;2023-07-31T03:32:07;100512.72;;;15.78;75.24
17593;BME280;8915;51.760;14.300;2023-07-31T03:34:37;100518.41;;;15.77;74.89
17593;BME280;8915;51.760;14.300;2023-07-31T03:37:05;100518.81;;;15.79;75.00
17593;BME280;8915;51.760;14.300;2023-07-31T03:39:39;100513.06;;;15.77;74.71
17593;BME280;8915;51.760;14.300;2023-07-31T03:42:09;100521.50;;;15.79;75.06
17593;BME280;8915;51.760;14.300;2023-07-31T03:44:39;100523.03;;;15.80;74.81
17593;BME280;8915;51.760;14.300;2023-07-31T03:47:09;100520.00;;;15.81;75.06
17593;BME280;8915;51.760;14.300;2023-07-31T03:49:43;100524.97;;;15.83;75.06
17593;BME280;8915;51.760;14.300;2023-07-31T03:52:19;100521.94;;;15.84;74.94
17593;BME280;8915;51.760;14.300;2023-07-31T03:54:49;100519.34;;;15.88;75.16
17593;BME280;8915;51.760;14.300;2023-07-31T04:00:24;100517.53;;;15.95;74.43
17593;BME280;8915;51.760;14.300;2023-07-31T04:03:02;100517.56;;;15.99;74.30
17593;BME280;8915;51.760;14.300;2023-07-31T04:05:38;100516.47;;;16.03;74.06
17593;BME280;8915;51.760;14.300;2023-07-31T04:08:13;100523.34;;;16.08;74.05
17593;BME280;8915;51.760;14.300;2023-07-31T04:10:57;100519.97;;;16.11;73.94
17593;BME280;8915;51.760;14.300;2023-07-31T04:13:26;100504.81;;;16.15;74.08
17593;BME280;8915;51.760;14.300;2023-07-31T04:15:59;100510.94;;;16.19;73.45
17593;BME280;8915;51.760;14.300;2023-07-31T04:18:33;100512.88;;;16.22;72.82
17593;BME280;8915;51.760;14.300;2023-07-31T04:21:18;100517.88;;;16.27;72.71
17593;BME280;8915;51.760;14.300;2023-07-31T04:23:51;100513.34;;;16.31;72.24
17593;BME280;8915;51.760;14.300;2023-07-31T04:26:30;100508.44;;;16.36;72.78
17593;BME280;8915;51.760;14.300;2023-07-31T04:29:08;100518.06;;;16.41;72.69
17593;BME280;8915;51.760;14.300;2023-07-31T04:31:47;100510.09;;;16.44;72.66
17593;BME280;8915;51.760;14.300;2023-07-31T04:34:19;100512.78;;;16.48;72.48
17593;BME280;8915;51.760;14.300;2023-07-31T04:36:48;100512.06;;;16.51;72.19
17593;BME280;8915;51.760;14.300;2023-07-31T04:39:26;100510.97;;;16.55;71.43
17593;BME280;8915;51.760;14.300;2023-07-31T04:42:00;100506.44;;;16.59;71.63
17593;BME280;8915;51.760;14.300;2023-07-31T04:44:40;100516.78;;;16.64;72.11
17593;BME280;8915;51.760;14.300;2023-07-31T04:47:12;100516.81;;;16.68;71.86
17593;BME280;8915;51.760;14.300;2023-07-31T04:49:41;100516.81;;;16.71;71.98
17593;BME280;8915;51.760;14.300;2023-07-31T04:52:11;100522.59;;;16.73;72.23
17593;BME280;8915;51.760;14.300;2023-07-31T04:54:53;100516.50;;;16.76;72.51
17593;BME280;8915;51.760;14.300;2023-07-31T04:57:30;100520.31;;;16.79;72.68
17593;BME280;8915;51.760;14.300;2023-07-31T05:00:01;100520.31;;;16.79;72.44
17593;BME280;8915;51.760;14.300;2023-07-31T05:02:37;100516.13;;;16.78;73.13
17593;BME280;8915;51.760;14.300;2023-07-31T05:05:20;100515.00;;;16.82;73.33
17593;BME280;8915;51.760;14.300;2023-07-31T05:07:52;100508.19;;;16.85;73.42
17593;BME280;8915;51.760;14.300;2023-07-31T05:10:21;100505.50;;;16.85;73.65
17593;BME280;8915;51.760;14.300;2023-07-31T05:12:57;100499.06;;;16.86;74.34
17593;BME280;8915;51.760;14.300;2023-07-31T05:15:27;100502.84;;;16.85;74.25
17593;BME280;8915;51.760;14.300;2023-07-31T05:17:53;100503.66;;;16.89;74.49
17593;BME280;8915;51.760;14.300;2023-07-31T05:20:26;100494.50;;;16.90;74.85
17593;BME280;8915;51.760;14.300;2023-07-31T05:22:53;100486.53;;;16.93;74.78
17593;BME280;8915;51.760;14.300;2023-07-31T05:25:30;100484.28;;;16.99;74.80
17593;BME280;8915;51.760;14.300;2023-07-31T05:28:05;100485.81;;;17.00;74.65
17593;BME280;8915;51.760;14.300;2023-07-31T05:30:35;100480.50;;;17.03;74.78
17593;BME280;8915;51.760;14.300;2023-07-31T05:33:09;100477.50;;;17.08;74.85
17593;BME280;8915;51.760;14.300;2023-07-31T05:35:36;100479.47;;;17.18;75.05
17593;BME280;8915;51.760;14.300;2023-07-31T05:38:09;100479.53;;;17.25;74.50
17593;BME280;8915;51.760;14.300;2023-07-31T05:40:39;100472.28;;;17.29;74.66
17593;BME280;8915;51.760;14.300;2023-07-31T05:43:07;100483.03;;;17.33;74.41
17593;BME280;8915;51.760;14.300;2023-07-31T05:45:38;100473.53;;;17.39;74.24
17593;BME280;8915;51.760;14.300;2023-07-31T05:48:09;100471.25;;;17.41;74.14
17593;BME280;8915;51.760;14.300;2023-07-31T05:50:36;100466.34;;;17.46;73.80
17593;BME280;8915;51.760;14.300;2023-07-31T05:53:10;100471.69;;;17.46;74.37
17593;BME280;8915;51.760;14.300;2023-07-31T05:55:42;100475.53;;;17.52;73.94
17593;BME280;8915;51.760;14.300;2023-07-31T05:58:12;100463.34;;;17.62;73.82
17593;BME280;8915;51.760;14.300;2023-07-31T06:00:46;100467.19;;;17.64;73.61
17593;BME280;8915;51.760;14.300;2023-07-31T06:03:18;100460.72;;;17.69;73.65
17593;BME280;8915;51.760;14.300;2023-07-31T06:05:47;100463.78;;;17.71;73.24
17593;BME280;8915;51.760;14.300;2023-07-31T06:08:19;100465.31;;;17.72;73.39
17593;BME280;8915;51.760;14.300;2023-07-31T06:10:49;100461.91;;;17.78;72.89
17593;BME280;8915;51.760;14.300;2023-07-31T06:13:21;100466.88;;;17.80;72.96
17593;BME280;8915;51.760;14.300;2023-07-31T06:15:51;100470.31;;;17.84;72.69
17593;BME280;8915;51.760;14.300;2023-07-31T06:18:20;100473.00;;;17.87;72.55
17593;BME280;8915;51.760;14.300;2023-07-31T06:20:46;100459.25;;;17.85;72.88
17593;BME280;8915;51.760;14.300;2023-07-31T06:23:18;100462.69;;;17.86;72.44
17593;BME280;8915;51.760;14.300;2023-07-31T06:25:45;100458.88;;;17.87;73.06
17593;BME280;8915;51.760;14.300;2023-07-31T06:28:12;100459.66;;;17.87;72.21
17593;BME280;8915;51.760;14.300;2023-07-31T06:30:40;100463.09;;;17.91;72.21
17593;BME280;8915;51.760;14.300;2023-07-31T06:33:06;100465.00;;;17.91;72.34
17593;BME280;8915;51.760;14.300;2023-07-31T06:35:34;100463.47;;;17.90;72.54
17593;BME280;8915;51.760;14.300;2023-07-31T06:38:00;100466.91;;;17.94;72.10
17593;BME280;8915;51.760;14.300;2023-07-31T06:40:27;100466.94;;;17.97;72.06
17593;BME280;8915;51.760;14.300;2023-07-31T06:42:53;100465.81;;;17.98;72.03
17593;BME280;8915;51.760;14.300;2023-07-31T06:45:20;100471.53;;;18.04;72.34
17593;BME280;8915;51.760;14.300;2023-07-31T06:47:48;100465.03;;;18.01;71.69
17593;BME280;8915;51.760;14.300;2023-07-31T06:50:14;100461.25;;;18.09;71.64
17593;BME280;8915;51.760;14.300;2023-07-31T06:52:41;100467.75;;;18.15;71.80
17593;BME280;8915;51.760;14.300;2023-07-31T06:55:16;100472.31;;;18.15;71.50
17593;BME280;8915;51.760;14.300;2023-07-31T06:57:43;100478.06;;;18.17;71.91
17593;BME280;8915;51.760;14.300;2023-07-31T07:00:10;100478.84;;;18.21;72.10
17593;BME280;8915;51.760;14.300;2023-07-31T07:02:37;100477.69;;;18.18;72.12
17593;BME280;8915;51.760;14.300;2023-07-31T07:05:06;100473.88;;;18.19;72.71
17593;BME280;8915;51.760;14.300;2023-07-31T07:07:33;100478.81;;;18.14;73.06
17593;BME280;8915;51.760;14.300;2023-07-31T07:09:59;100471.94;;;18.09;73.53
17593;BME280;8915;51.760;14.300;2023-07-31T07:12:25;100481.13;;;18.15;73.62
17593;BME280;8915;51.760;14.300;2023-07-31T07:14:52;100479.22;;;18.16;74.06
17593;BME280;8915;51.760;14.300;2023-07-31T07:17:18;100471.56;;;18.11;74.07
17593;BME280;8915;51.760;14.300;2023-07-31T07:19:45;100476.50;;;18.05;74.32
17593;BME280;8915;51.760;14.300;2023-07-31T07:22:13;100476.13;;;18.03;74.78
17593;BME280;8915;51.760;14.300;2023-07-31T07:24:39;100473.03;;;18.01;75.03
17593;BME280;8915;51.760;14.300;2023-07-31T07:27:06;100478.38;;;17.98;75.30
17593;BME280;8915;51.760;14.300;2023-07-31T07:29:33;100473.03;;;17.94;75.78
17593;BME280;8915;51.760;14.300;2023-07-31T07:32:00;100474.97;;;18.01;76.45
17593;BME280;8915;51.760;14.300;2023-07-31T07:34:27;100473.44;;;18.03;76.74
17593;BME280;8915;51.760;14.300;2023-07-31T07:36:53;100460.09;;;18.03;77.45
17593;BME280;8915;51.760;14.300;2023-07-31T07:39:21;100474.25;;;18.11;77.03
17593;BME280;8915;51.760;14.300;2023-07-31T07:41:47;100465.06;;;18.19;76.94
17593;BME280;8915;51.760;14.300;2023-07-31T07:44:14;100472.34;;;18.18;76.91
17593;BME280;8915;51.760;14.300;2023-07-31T07:46:41;100465.84;;;18.19;76.77
17593;BME280;8915;51.760;14.300;2023-07-31T07:49:07;100470.06;;;18.24;76.79
17593;BME280;8915;51.760;14.300;2023-07-31T07:51:33;100469.69;;;18.29;77.04
17593;BME280;8915;51.760;14.300;2023-07-31T07:54:00;100465.13;;;18.29;76.73
17593;BME280;8915;51.760;14.300;2023-07-31T07:56:28;100465.16;;;18.33;76.99
17593;BME280;8915;51.760;14.300;2023-07-31T07:58:54;100462.47;;;18.36;77.19
17593;BME280;8915;51.760;14.300;2023-07-31T08:01:21;100469.38;;;18.44;76.64
17593;BME280;8915;51.760;14.300;2023-07-31T08:03:47;100462.88;;;18.52;76.92
17593;BME280;8915;51.760;14.300;2023-07-31T08:06:14;100459.06;;;18.57;77.33
17593;BME280;8915;51.760;14.300;2023-07-31T08:08:40;100459.84;;;18.64;77.10
17593;BME280;8915;51.760;14.300;2023-07-31T08:11:06;100457.16;;;18.64;76.10
17593;BME280;8915;51.760;14.300;2023-07-31T08:13:34;100461.75;;;18.64;75.79
17593;BME280;8915;51.760;14.300;2023-07-31T08:16:02;100461.38;;;18.62;75.68
17593;BME280;8915;51.760;14.300;2023-07-31T08:18:28;100459.06;;;18.67;76.34
17593;BME280;8915;51.760;14.300;2023-07-31T08:20:54;100464.41;;;18.67;76.47
17593;BME280;8915;51.760;14.300;2023-07-31T08:23:21;100456.75;;;18.66;76.10
17593;BME280;8915;51.760;14.300;2023-07-31T08:25:47;100458.69;;;18.76;76.18
17593;BME280;8915;51.760;14.300;2023-07-31T08:28:15;100459.81;;;18.75;76.21
17593;BME280;8915;51.760;14.300;2023-07-31T08:30:42;100465.56;;;18.80;76.29
17593;BME280;8915;51.760;14.300;2023-07-31T08:33:09;100462.13;;;18.80;76.56
17593;BME280;8915;51.760;14.300;2023-07-31T08:35:36;100460.59;;;18.86;76.35
17593;BME280;8915;51.760;14.300;2023-07-31T08:38:02;100467.84;;;18.92;76.54
17593;BME280;8915;51.760;14.300;2023-07-31T08:40:29;100469.38;;;18.93;76.13
17593;BME280;8915;51.760;14.300;2023-07-31T08:42:55;100462.50;;;18.92;75.76
17593;BME280;8915;51.760;14.300;2023-07-31T08:45:27;100457.50;;;18.98;75.93
17593;BME280;8915;51.760;14.300;2023-07-31T08:47:55;100464.41;;;19.02;75.93
17593;BME280;8915;51.760;14.300;2023-07-31T08:50:22;100458.25;;;19.05;75.75
17593;BME280;8915;51.760;14.300;2023-07-31T08:52:50;100456.72;;;19.08;75.31
17593;BME280;8915;51.760;14.300;2023-07-31T08:55:17;100448.72;;;19.15;75.51
17593;BME280;8915;51.760;14.300;2023-07-31T08:57:48;100452.91;;;19.16;75.12
17593;BME280;8915;51.760;14.300;2023-07-31T09:00:16;100447.97;;;19.21;74.99
17593;BME280;8915;51.760;14.300;2023-07-31T09:02:45;100457.88;;;19.28;74.87
17593;BME280;8915;51.760;14.300;2023-07-31T09:05:14;100456.34;;;19.30;74.58
17593;BME280;8915;51.760;14.300;2023-07-31T09:07:42;100451.34;;;19.39;74.82
17593;BME280;8915;51.760;14.300;2023-07-31T09:10:12;100452.09;;;19.47;75.01
17593;BME280;8915;51.760;14.300;2023-07-31T09:12:39;100446.72;;;19.50;74.61
17593;BME280;8915;51.760;14.300;2023-07-31T09:15:06;100441.38;;;19.50;73.63
17593;BME280;8915;51.760;14.300;2023-07-31T09:17:34;100445.94;;;19.57;73.80
17593;BME280;8915;51.760;14.300;2023-07-31T09:20:14;100433.31;;;19.57;73.57
17593;BME280;8915;51.760;14.300;2023-07-31T09:22:41;100450.50;;;19.67;73.48
17593;BME280;8915;51.760;14.300;2023-07-31T09:25:14;100449.31;;;19.78;73.67
17593;BME280;8915;51.760;14.300;2023-07-31T09:27:49;100446.94;;;19.91;73.51
17593;BME280;8915;51.760;14.300;2023-07-31T09:30:16;100447.63;;;20.05;73.31
17593;BME280;8915;51.760;14.300;2023-07-31T09:32:43;100446.81;;;20.19;73.62
17593;BME280;8915;51.760;14.300;2023-07-31T09:35:19;100436.38;;;20.31;72.57
17593;BME280;8915;51.760;14.300;2023-07-31T09:37:48;100444.72;;;20.44;72.41
17593;BME280;8915;51.760;14.300;2023-07-31T09:40:25;100433.88;;;20.58;71.83
17593;BME280;8915;51.760;14.300;2023-07-31T09:42:51;100436.44;;;20.72;71.76
17593;BME280;8915;51.760;14.300;2023-07-31T09:45:18;100434.13;;;20.77;69.57
17593;BME280;8915;51.760;14.300;2023-07-31T09:47:46;100430.53;;;20.94;70.74
17593;BME280;8915;51.760;14.300;2023-07-31T09:50:15;100425.78;;;21.09;69.96
17593;BME280;8915;51.760;14.300;2023-07-31T09:52:42;100417.63;;;21.19;68.53
17593;BME280;8915;51.760;14.300;2023-07-31T09:55:09;100429.78;;;21.31;69.13
17593;BME280;8915;51.760;14.300;2023-07-31T09:57:38;100429.28;;;21.39;67.31
17593;BME280;8915;51.760;14.300;2023-07-31T10:00:06;100421.16;;;21.46;67.86
17593;BME280;8915;51.760;14.300;2023-07-31T10:02:37;100421.78;;;21.57;67.00
17593;BME280;8915;51.760;14.300;2023-07-31T10:05:05;100427.81;;;21.68;66.01
17593;BME280;8915;51.760;14.300;2023-07-31T10:07:36;100417.66;;;21.79;66.52
17593;BME280;8915;51.760;14.300;2023-07-31T10:10:04;100419.63;;;21.79;68.51
17593;BME280;8915;51.760;14.300;2023-07-31T10:12:32;100412.97;;;21.87;64.32
17593;BME280;8915;51.760;14.300;2023-07-31T10:15:00;100406.72;;;21.93;62.93
17593;BME280;8915;51.760;14.300;2023-07-31T10:17:26;100402.41;;;21.99;61.64
17593;BME280;8915;51.760;14.300;2023-07-31T10:19:53;100405.31;;;22.12;63.28
17593;BME280;8915;51.760;14.300;2023-07-31T10:22:20;100407.53;;;22.17;62.63
17593;BME280;8915;51.760;14.300;2023-07-31T10:24:48;100409.13;;;22.14;60.73
17593;BME280;8915;51.760;14.300;2023-07-31T10:27:16;100417.44;;;22.23;61.55
17593;BME280;8915;51.760;14.300;2023-07-31T10:29:43;100412.53;;;22.18;61.97
17593;BME280;8915;51.760;14.300;2023-07-31T10:32:13;100409.13;;;22.14;59.98
17593;BME280;8915;51.760;14.300;2023-07-31T10:34:41;100416.25;;;22.01;59.78
17593;BME280;8915;51.760;14.300;2023-07-31T10:37:21;100418.44;;;21.80;60.41
17593;BME280;8915;51.760;14.300;2023-07-31T10:39:57;100412.91;;;21.60;60.79
17593;BME280;8915;51.760;14.300;2023-07-31T10:42:31;100420.25;;;21.56;62.21
17593;BME280;8915;51.760;14.300;2023-07-31T10:45:00;100420.06;;;21.40;61.40
17593;BME280;8915;51.760;14.300;2023-07-31T10:47:27;100413.69;;;21.27;59.65
17593;BME280;8915;51.760;14.300;2023-07-31T10:50:12;100412.19;;;21.23;60.09
17593;BME280;8915;51.760;14.300;2023-07-31T10:52:39;100415.28;;;21.21;61.61
17593;BME280;8915;51.760;14.300;2023-07-31T10:55:30;100411.19;;;21.10;61.14
17593;BME280;8915;51.760;14.300;2023-07-31T10:57:58;100401.25;;;21.07;60.99
17593;BME280;8915;51.760;14.300;2023-07-31T11:00:30;100397.78;;;21.06;60.81
17593;BME280;8915;51.760;14.300;2023-07-31T11:02:58;100397.09;;;21.02;61.86
17593;BME280;8915;51.760;14.300;2023-07-31T11:05:44;100392.84;;;21.05;60.92
17593;BME280;8915;51.760;14.300;2023-07-31T11:08:12;100398.28;;;20.98;61.29
17593;BME280;8915;51.760;14.300;2023-07-31T11:10:40;100401.34;;;21.00;60.39
17593;BME280;8915;51.760;14.300;2023-07-31T11:13:07;100404.03;;;21.00;60.95
17593;BME280;8915;51.760;14.300;2023-07-31T11:15:33;100405.16;;;21.02;61.03
17593;BME280;8915;51.760;14.300;2023-07-31T11:18:00;100398.19;;;21.08;62.00
17593;BME280;8915;51.760;14.300;2023-07-31T11:20:29;100405.06;;;21.09;62.32
17593;BME280;8915;51.760;14.300;2023-07-31T11:22:58;100392.81;;;21.08;60.53
17593;BME280;8915;51.760;14.300;2023-07-31T11:25:25;100391.94;;;21.15;62.85
17593;BME280;8915;51.760;14.300;2023-07-31T11:27:52;100386.91;;;21.20;63.66
17593;BME280;8915;51.760;14.300;2023-07-31T11:30:21;100384.13;;;21.27;61.03
17593;BME280;8915;51.760;14.300;2023-07-31T11:32:48;100379.03;;;21.36;61.29
17593;BME280;8915;51.760;14.300;2023-07-31T11:35:16;100375.81;;;21.48;61.32
17593;BME280;8915;51.760;14.300;2023-07-31T11:37:43;100381.50;;;21.54;59.89
17593;BME280;8915;51.760;14.300;2023-07-31T11:40:11;100371.44;;;21.61;60.31
17593;BME280;8915;51.760;14.300;2023-07-31T11:42:37;100373.69;;;21.66;59.17
17593;BME280;8915;51.760;14.300;2023-07-31T11:45:06;100371.31;;;21.72;58.98
17593;BME280;8915;51.760;14.300;2023-07-31T11:47:33;100375.78;;;21.82;60.30
17593;BME280;8915;51.760;14.300;2023-07-31T11:50:01;100378.72;;;21.91;59.64
17593;BME280;8915;51.760;14.300;2023-07-31T11:52:28;100373.22;;;22.01;58.24
17593;BME280;8915;51.760;14.300;2023-07-31T11:54:56;100378.78;;;22.14;58.83
17593;BME280;8915;51.760;14.300;2023-07-31T11:57:23;100373.34;;;22.17;59.37
17593;BME280;8915;51.760;14.300;2023-07-31T11:59:50;100374.66;;;22.32;59.09
17593;BME280;8915;51.760;14.300;2023-07-31T12:02:18;100364.16;;;22.38;58.73
17593;BME280;8915;51.760;14.300;2023-07-31T12:04:46;100364.09;;;22.45;57.00
17593;BME280;8915;51.760;14.300;2023-07-31T12:07:13;100361.97;;;22.56;56.46
17593;BME280;8915;51.760;14.300;2023-07-31T12:09:50;100355.84;;;22.75;58.27
17593;BME280;8915;51.760;14.300;2023-07-31T12:12:19;100350.28;;;22.85;56.86
17593;BME280;8915;51.760;14.300;2023-07-31T12:14:46;100355.13;;;22.94;58.60
17593;BME280;8915;51.760;14.300;2023-07-31T12:17:14;100345.75;;;23.02;56.26
17593;BME280;8915;51.760;14.300;2023-07-31T12:19:41;100345.88;;;23.14;56.20
17593;BME280;8915;51.760;14.300;2023-07-31T12:22:11;100338.72;;;23.27;56.20
17593;BME280;8915;51.760;14.300;2023-07-31T12:24:39;100324.34;;;23.34;54.48
17593;BME280;8915;51.760;14.300;2023-07-31T12:27:08;100330.59;;;23.47;54.31
17593;BME280;8915;51.760;14.300;2023-07-31T12:29:35;100335.75;;;23.58;57.59
17593;BME280;8915;51.760;14.300;2023-07-31T12:32:02;100331.88;;;23.58;53.55
17593;BME280;8915;51.760;14.300;2023-07-31T12:34:28;100315.53;;;23.65;56.76
17593;BME280;8915;51.760;14.300;2023-07-31T12:36:56;100321.09;;;23.58;55.80
17593;BME280;8915;51.760;14.300;2023-07-31T12:39:23;100326.91;;;23.57;53.87
17593;BME280;8915;51.760;14.300;2023-07-31T12:41:49;100319.59;;;23.58;53.28
17593;BME280;8915;51.760;14.300;2023-07-31T12:44:16;100324.28;;;23.53;55.07
17593;BME280;8915;51.760;14.300;2023-07-31T12:46:42;100315.97;;;23.48;52.73
17593;BME280;8915;51.760;14.300;2023-07-31T12:49:08;100321.69;;;23.50;53.73
17593;BME280;8915;51.760;14.300;2023-07-31T12:51:35;100323.28;;;23.48;54.39
17593;BME280;8915;51.760;14.300;2023-07-31T12:54:03;100321.84;;;23.43;54.54
17593;BME280;8915;51.760;14.300;2023-07-31T12:56:29;100322.75;;;23.37;56.35
17593;BME280;8915;51.760;14.300;2023-07-31T12:58:56;100313.88;;;23.36;54.63
17593;BME280;8915;51.760;14.300;2023-07-31T13:01:22;100304.22;;;23.38;53.91
17593;BME280;8915;51.760;14.300;2023-07-31T13:03:48;100300.09;;;23.34;53.52
17593;BME280;8915;51.760;14.300;2023-07-31T13:06:15;100305.72;;;23.39;54.46